Time;durP1;ratioP1;P1;durP2;ratioP2;P2;SDS_P1;SDS_P2;PMS_P1;PMS_P2;Temp;Humidity;BMP_temperature;BMP_pressure;BME280_temperature;BME280_humidity;BME280_pressure;Samples;Min_cycle;Max_cycle;Signal;HPM_P1;HPM_P2
2023/05/28 00:00:46;;;;;;;11.13;7.38;;;;;;;-144.85;100.00;61331.59;5091301;28;31563;-72
2023/05/28 00:03:17;;;;;;;14.32;7.28;;;;;;;-144.85;100.00;61331.59;5078897;28;30444;-72
2023/05/28 00:05:45;;;;;;;12.02;7.03;;;;;;;-144.85;100.00;61331.59;5080671;28;31689;-72
2023/05/28 00:08:13;;;;;;;12.52;7.00;;;;;;;-144.85;100.00;61331.59;5099082;28;31977;-72
2023/05/28 00:10:42;;;;;;;14.48;7.20;;;;;;;-144.85;100.00;61331.59;5080828;28;31649;-72
2023/05/28 00:13:09;;;;;;;14.05;7.88;;;;;;;-144.85;100.00;61331.59;5098864;28;32316;-72
2023/05/28 00:15:37;;;;;;;13.77;7.78;;;;;;;-144.85;100.00;61331.59;5098874;28;33304;-72
2023/05/28 00:18:05;;;;;;;13.52;7.32;;;;;;;-144.85;100.00;61331.59;5081258;28;32606;-72
2023/05/28 00:20:32;;;;;;;13.68;7.07;;;;;;;-144.85;100.00;61331.59;5100027;28;32246;-72
2023/05/28 00:23:00;;;;;;;15.70;7.60;;;;;;;-144.85;100.00;61331.59;5099526;28;31472;-72
2023/05/28 00:25:27;;;;;;;13.23;7.13;;;;;;;-144.85;100.00;61331.59;5096534;28;32208;-72
2023/05/28 00:27:54;;;;;;;14.95;7.30;;;;;;;-144.85;100.00;61331.59;5103055;28;32052;-72
2023/05/28 00:30:23;;;;;;;12.40;7.80;;;;;;;-144.85;100.00;61331.59;5081777;28;31880;-72
2023/05/28 00:32:50;;;;;;;13.63;8.07;;;;;;;-144.85;100.00;61331.59;5066417;28;32079;-72
2023/05/28 00:35:18;;;;;;;12.82;7.63;;;;;;;-144.85;100.00;61331.59;5098629;28;32410;-72
2023/05/28 00:37:45;;;;;;;15.57;7.80;;;;;;;-144.85;100.00;61331.59;5103268;28;31916;-72
2023/05/28 00:40:15;;;;;;;16.90;7.63;;;;;;;-144.85;100.00;61331.59;5100908;28;31831;-72
2023/05/28 00:42:43;;;;;;;15.40;7.43;;;;;;;-144.85;100.00;61331.59;5080405;28;30689;-72
2023/05/28 00:45:14;;;;;;;18.05;7.25;;;;;;;-144.85;100.00;61331.59;5098382;28;32942;-72
2023/05/28 00:47:42;;;;;;;15.30;7.47;;;;;;;-144.85;100.00;61331.59;5068627;28;31106;-72
2023/05/28 00:50:12;;;;;;;15.43;7.25;;;;;;;-144.85;100.00;61331.59;5078451;28;30829;-72
2023/05/28 00:52:40;;;;;;;16.20;7.22;;;;;;;-144.85;100.00;61331.59;5091076;28;33011;-72
2023/05/28 00:55:14;;;;;;;11.68;6.65;;;;;;;-144.85;100.00;61331.59;5067109;28;31185;-72
2023/05/28 00:57:42;;;;;;;16.27;7.80;;;;;;;-144.85;100.00;61331.59;5068274;28;31123;-73
2023/05/28 01:00:11;;;;;;;12.90;7.18;;;;;;;-144.85;100.00;61331.59;5060705;28;31708;-72
2023/05/28 01:02:39;;;;;;;12.38;6.70;;;;;;;-144.85;100.00;61331.59;5097179;28;31677;-72
2023/05/28 01:05:06;;;;;;;12.15;6.75;;;;;;;-144.85;100.00;61331.59;5099556;28;32713;-72
2023/05/28 01:07:34;;;;;;;14.82;7.05;;;;;;;-144.85;100.00;61331.59;5079749;28;33779;-72
2023/05/28 01:10:02;;;;;;;12.88;7.05;;;;;;;-144.85;100.00;61331.59;5098551;28;33103;-72
2023/05/28 01:12:31;;;;;;;11.57;6.57;;;;;;;-144.85;100.00;61331.59;5098228;28;31522;-72
2023/05/28 01:14:58;;;;;;;15.55;7.28;;;;;;;-144.85;100.00;61331.59;5098317;28;32446;-72
2023/05/28 01:17:26;;;;;;;12.45;6.72;;;;;;;-144.85;100.00;61331.59;5079969;28;32445;-72
2023/05/28 01:19:54;;;;;;;14.07;6.50;;;;;;;-144.85;100.00;61331.59;5079512;28;32795;-72
2023/05/28 01:22:28;;;;;;;10.57;6.60;;;;;;;-144.85;100.00;61331.59;5079390;28;30632;-72
2023/05/28 01:24:56;;;;;;;10.98;6.40;;;;;;;-144.85;100.00;61331.59;5097600;28;32693;-72
2023/05/28 01:27:24;;;;;;;14.63;6.45;;;;;;;-144.85;100.00;61331.59;5066893;28;29760;-73
2023/05/28 01:29:51;;;;;;;16.35;6.50;;;;;;;-144.85;100.00;61331.59;5069508;28;32160;-72
2023/05/28 01:32:19;;;;;;;15.05;6.05;;;;;;;-144.85;100.00;61331.59;5061421;28;32208;-73
2023/05/28 01:34:46;;;;;;;14.85;6.38;;;;;;;-144.85;100.00;61331.59;5093300;28;32518;-72
2023/05/28 01:37:16;;;;;;;12.10;6.25;;;;;;;-144.85;100.00;61331.59;5101343;28;31521;-72
2023/05/28 01:39:47;;;;;;;12.65;5.95;;;;;;;-144.85;100.00;61331.59;5066865;28;30773;-73
2023/05/28 01:42:15;;;;;;;12.88;5.97;;;;;;;-144.85;100.00;61331.59;5079040;28;30806;-72
2023/05/28 01:44:43;;;;;;;13.90;6.35;;;;;;;-144.85;100.00;61331.59;5081529;28;32497;-72
2023/05/28 01:47:13;;;;;;;12.75;6.45;;;;;;;-144.85;100.00;61331.59;5082480;28;31280;-72
2023/05/28 01:49:42;;;;;;;11.20;5.97;;;;;;;-144.85;100.00;61331.59;5078750;28;31191;-72
2023/05/28 01:52:13;;;;;;;12.57;6.05;;;;;;;-144.85;100.00;61331.59;5083059;28;32042;-72
2023/05/28 01:54:40;;;;;;;13.07;6.20;;;;;;;-144.85;100.00;61331.59;5080877;28;32628;-72
2023/05/28 01:57:07;;;;;;;12.52;5.88;;;;;;;-144.85;100.00;61331.59;5087732;28;32436;-72
2023/05/28 01:59:35;;;;;;;11.48;5.70;;;;;;;-144.85;100.00;61331.59;5067589;28;30778;-72
2023/05/28 02:02:02;;;;;;;14.63;5.90;;;;;;;-144.85;100.00;61331.59;5075474;28;30513;-72
2023/05/28 02:04:29;;;;;;;12.98;5.97;;;;;;;-144.85;100.00;61331.59;5083138;28;31418;-72
2023/05/28 02:06:58;;;;;;;12.48;6.22;;;;;;;-144.85;100.00;61331.59;5092955;28;32243;-72
2023/05/28 02:09:25;;;;;;;17.85;6.45;;;;;;;-144.85;100.00;61331.59;5067876;28;30591;-72
2023/05/28 02:11:52;;;;;;;14.60;5.97;;;;;;;-144.85;100.00;61331.59;5097535;28;31430;-72
2023/05/28 02:14:19;;;;;;;14.73;6.03;;;;;;;-144.85;100.00;61331.59;5098797;28;33477;-73
2023/05/28 02:16:52;;;;;;;12.95;5.82;;;;;;;-144.85;100.00;61331.59;5082826;28;31094;-72
2023/05/28 02:19:20;;;;;;;13.23;5.93;;;;;;;-144.85;100.00;61331.59;5087766;28;31153;-72
2023/05/28 02:21:47;;;;;;;16.73;6.20;;;;;;;-144.85;100.00;61331.59;5087680;28;30784;-72
2023/05/28 02:24:14;;;;;;;12.10;5.80;;;;;;;-144.85;100.00;61331.59;5095600;28;33113;-72
2023/05/28 02:26:42;;;;;;;11.82;6.15;;;;;;;-144.85;100.00;61331.59;5080204;28;31056;-72
2023/05/28 02:29:09;;;;;;;12.38;6.72;;;;;;;-144.85;100.00;61331.59;5078194;28;31229;-72
2023/05/28 02:31:36;;;;;;;14.52;5.70;;;;;;;-144.85;100.00;61331.59;5083519;28;30412;-72
2023/05/28 02:34:03;;;;;;;11.52;5.60;;;;;;;-144.85;100.00;61331.59;5096210;28;32672;-72
2023/05/28 02:36:32;;;;;;;13.02;5.78;;;;;;;-144.85;100.00;61331.59;5082697;28;32679;-72
2023/05/28 02:39:00;;;;;;;14.95;6.18;;;;;;;-144.85;100.00;61331.59;5096625;28;31547;-72
2023/05/28 02:41:27;;;;;;;12.40;6.00;;;;;;;-144.85;100.00;61331.59;5061073;28;31468;-72
2023/05/28 02:43:56;;;;;;;13.35;6.13;;;;;;;-144.85;100.00;61331.59;5079917;28;30040;-72
2023/05/28 02:46:24;;;;;;;11.02;5.72;;;;;;;-144.85;100.00;61331.59;5097357;28;32262;-72
2023/05/28 02:48:51;;;;;;;15.13;5.97;;;;;;;-144.85;100.00;61331.59;5087395;28;30697;-72
2023/05/28 02:51:19;;;;;;;17.60;6.80;;;;;;;-144.85;100.00;61331.59;5084979;28;30755;-72
2023/05/28 02:54:10;;;;;;;12.48;6.10;;;;;;;-144.85;100.00;61331.59;5058609;28;32400;-72
2023/05/28 02:56:37;;;;;;;12.48;6.32;;;;;;;-144.85;100.00;61331.59;5100301;28;32739;-72
2023/05/28 02:59:04;;;;;;;12.00;6.13;;;;;;;-144.85;100.00;61331.59;5083333;28;32941;-72
2023/05/28 03:01:31;;;;;;;12.65;6.05;;;;;;;-144.85;100.00;61331.59;5078726;28;30550;-72
2023/05/28 03:04:00;;;;;;;14.00;5.97;;;;;;;-144.85;100.00;61331.59;5070607;28;20131;-72
2023/05/28 03:06:27;;;;;;;13.88;6.90;;;;;;;-144.85;100.00;61331.59;5071048;28;31048;-72
2023/05/28 03:08:54;;;;;;;15.63;6.88;;;;;;;-144.85;100.00;61331.59;5076613;28;31283;-72
2023/05/28 03:11:22;;;;;;;15.88;6.82;;;;;;;-144.85;100.00;61331.59;5077700;28;30550;-72
2023/05/28 03:13:50;;;;;;;11.07;5.93;;;;;;;-144.85;100.00;61331.59;5077291;28;31637;-72
2023/05/28 03:16:17;;;;;;;15.68;6.70;;;;;;;-144.85;100.00;61331.59;5086225;28;31375;-72
2023/05/28 03:18:45;;;;;;;10.55;6.35;;;;;;;-144.85;100.00;61331.59;5081624;28;31783;-72
2023/05/28 03:21:13;;;;;;;14.32;6.85;;;;;;;-144.85;100.00;61331.59;5081291;28;31492;-72
2023/05/28 03:23:41;;;;;;;15.35;6.53;;;;;;;-144.85;100.00;61331.59;5085659;28;31567;-71
2023/05/28 03:26:18;;;;;;;13.95;6.53;;;;;;;-144.85;100.00;61331.59;5081282;28;31290;-71
2023/05/28 03:28:45;;;;;;;15.15;6.93;;;;;;;-144.85;100.00;61331.59;5101611;28;31808;-72
2023/05/28 03:31:29;;;;;;;16.30;6.57;;;;;;;-144.85;100.00;61331.59;5079469;28;31257;-72
2023/05/28 03:33:58;;;;;;;16.98;7.00;;;;;;;-144.85;100.00;61331.59;5082233;28;32746;-71
2023/05/28 03:36:25;;;;;;;16.08;6.63;;;;;;;-144.85;100.00;61331.59;5082842;28;31334;-72
2023/05/28 03:38:52;;;;;;;20.05;7.05;;;;;;;-144.85;100.00;61331.59;5087713;28;31066;-72
2023/05/28 03:41:23;;;;;;;19.08;7.10;;;;;;;-144.85;100.00;61331.59;5082432;28;30543;-71
2023/05/28 03:43:50;;;;;;;14.77;6.90;;;;;;;-144.85;100.00;61331.59;5099442;28;32379;-72
2023/05/28 03:46:17;;;;;;;13.77;7.13;;;;;;;-144.85;100.00;61331.59;5073198;28;31841;-72
2023/05/28 03:48:45;;;;;;;16.40;7.05;;;;;;;-144.85;100.00;61331.59;5085833;28;32174;-71
2023/05/28 03:51:13;;;;;;;16.80;7.30;;;;;;;-144.85;100.00;61331.59;5083126;28;30834;-72
2023/05/28 03:53:40;;;;;;;14.40;6.97;;;;;;;-144.85;100.00;61331.59;5053902;28;32950;-72
2023/05/28 03:56:07;;;;;;;15.13;7.05;;;;;;;-144.85;100.00;61331.59;5063499;28;32101;-71
2023/05/28 03:58:34;;;;;;;15.38;7.20;;;;;;;-144.85;100.00;61331.59;5098818;28;32179;-71
2023/05/28 04:01:01;;;;;;;15.93;7.00;;;;;;;-144.85;100.00;61331.59;5104525;28;32940;-72
2023/05/28 04:03:28;;;;;;;16.27;7.63;;;;;;;-144.85;100.00;61331.59;5099663;28;33380;-72
2023/05/28 04:05:56;;;;;;;15.55;6.75;;;;;;;-144.85;100.00;61331.59;5085809;28;31094;-72
2023/05/28 04:08:24;;;;;;;15.15;6.90;;;;;;;-144.85;100.00;61331.59;5116004;27;31343;-71
2023/05/28 04:10:51;;;;;;;18.02;7.35;;;;;;;-144.85;100.00;61331.59;5079678;28;31930;-72
2023/05/28 04:13:18;;;;;;;13.20;7.00;;;;;;;-144.85;100.00;61331.59;5080086;28;31822;-72
2023/05/28 04:15:46;;;;;;;16.70;7.18;;;;;;;-144.85;100.00;61331.59;5064798;28;31146;-71
2023/05/28 04:18:13;;;;;;;16.05;6.57;;;;;;;-144.85;100.00;61331.59;5069022;28;31194;-72
2023/05/28 04:20:41;;;;;;;16.70;7.28;;;;;;;-144.85;100.00;61331.59;5082862;28;30549;-72
2023/05/28 04:23:09;;;;;;;15.30;6.88;;;;;;;-144.85;100.00;61331.59;5095694;28;33149;-72
2023/05/28 04:25:36;;;;;;;18.23;7.40;;;;;;;-144.85;100.00;61331.59;5073937;28;32140;-72
2023/05/28 04:28:04;;;;;;;13.10;6.70;;;;;;;-144.85;100.00;61331.59;5064447;28;31095;-72
2023/05/28 04:30:33;;;;;;;15.13;6.70;;;;;;;-144.85;100.00;61331.59;5069956;28;30778;-71
2023/05/28 04:33:00;;;;;;;11.95;6.50;;;;;;;-144.85;100.00;61331.59;5070836;28;31639;-72
2023/05/28 04:35:27;;;;;;;13.50;7.07;;;;;;;-144.85;100.00;61331.59;5100677;28;31837;-72
2023/05/28 04:37:55;;;;;;;15.50;6.90;;;;;;;-144.85;100.00;61331.59;5062841;28;31798;-71
2023/05/28 04:40:22;;;;;;;18.23;7.30;;;;;;;-144.85;100.00;61331.59;5079917;28;30526;-72
2023/05/28 04:42:49;;;;;;;18.90;7.72;;;;;;;-144.85;100.00;61331.59;5098435;28;32246;-72
2023/05/28 04:45:17;;;;;;;17.80;7.25;;;;;;;-144.85;100.00;61331.59;5091476;28;32242;-72
2023/05/28 04:47:45;;;;;;;12.82;7.00;;;;;;;-144.85;100.00;61331.59;5080379;28;31026;-71
2023/05/28 04:50:13;;;;;;;14.25;7.20;;;;;;;-144.85;100.00;61331.59;5082330;28;31047;-72
2023/05/28 04:52:40;;;;;;;17.50;7.10;;;;;;;-144.85;100.00;61331.59;5101014;28;32355;-72
2023/05/28 04:55:07;;;;;;;18.70;7.07;;;;;;;-144.85;100.00;61331.59;5081525;28;31458;-72
2023/05/28 04:57:35;;;;;;;15.13;7.28;;;;;;;-144.85;100.00;61331.59;5065871;28;31350;-71
2023/05/28 05:00:03;;;;;;;12.73;6.40;;;;;;;-144.85;100.00;61331.59;5073396;28;30525;-72
2023/05/28 05:02:31;;;;;;;13.70;6.38;;;;;;;-144.85;100.00;61331.59;5080428;28;33619;-72
2023/05/28 05:04:59;;;;;;;15.38;6.43;;;;;;;-144.85;100.00;61331.59;5062594;28;31339;-72
2023/05/28 05:07:28;;;;;;;16.75;6.97;;;;;;;-144.85;100.00;61331.59;5084503;28;30983;-72
2023/05/28 05:09:56;;;;;;;18.67;7.20;;;;;;;-144.85;100.00;61331.59;5079456;28;30664;-72
2023/05/28 05:12:23;;;;;;;18.45;7.05;;;;;;;-144.85;100.00;61331.59;5081966;28;32205;-72
2023/05/28 05:14:50;;;;;;;13.90;7.03;;;;;;;-144.85;100.00;61331.59;5095864;28;32628;-72
2023/05/28 05:17:17;;;;;;;16.92;7.07;;;;;;;-144.85;100.00;61331.59;5078927;28;30515;-72
2023/05/28 05:19:44;;;;;;;17.38;7.43;;;;;;;-144.85;100.00;61331.59;5070076;28;31443;-72
2023/05/28 05:22:12;;;;;;;14.93;7.25;;;;;;;-144.85;100.00;61331.59;5084991;28;31600;-72
2023/05/28 05:24:41;;;;;;;19.00;7.00;;;;;;;-144.85;100.00;61331.59;5084492;28;32185;-72
2023/05/28 05:27:08;;;;;;;21.25;7.57;;;;;;;-144.85;100.00;61331.59;5080891;28;30862;-72
2023/05/28 05:29:36;;;;;;;17.35;7.10;;;;;;;-144.85;100.00;61331.59;5097839;28;31251;-72
2023/05/28 05:32:03;;;;;;;16.20;7.05;;;;;;;-144.85;100.00;61331.59;5081734;28;31389;-71
2023/05/28 05:34:30;;;;;;;18.52;7.03;;;;;;;-144.85;100.00;61331.59;5070810;28;32954;-72
2023/05/28 05:37:00;;;;;;;14.23;7.10;;;;;;;-144.85;100.00;61331.59;5098949;27;33401;-72
2023/05/28 05:39:48;;;;;;;13.40;7.18;;;;;;;-144.85;100.00;61331.59;5038268;28;32053;-72
2023/05/28 05:42:29;;;;;;;15.50;7.00;;;;;;;-144.85;100.00;61331.59;5071480;28;31447;-71
2023/05/28 05:44:56;;;;;;;14.23;6.88;;;;;;;-144.85;100.00;61331.59;5076482;28;32196;-72
2023/05/28 05:47:24;;;;;;;15.63;7.30;;;;;;;-144.85;100.00;61331.59;5080012;28;31124;-72
2023/05/28 05:49:53;;;;;;;18.58;7.55;;;;;;;-144.85;100.00;61331.59;5081538;28;30943;-72
2023/05/28 05:52:20;;;;;;;17.92;7.53;;;;;;;-144.85;100.00;61331.59;5068308;28;32842;-72
2023/05/28 05:54:53;;;;;;;16.63;7.75;;;;;;;-144.85;100.00;61331.59;5081685;28;31089;-72
2023/05/28 05:57:20;;;;;;;16.50;7.00;;;;;;;-144.85;100.00;61331.59;5076063;28;31846;-73
2023/05/28 05:59:48;;;;;;;15.25;7.07;;;;;;;-144.85;100.00;61331.59;5082053;28;30457;-72
2023/05/28 06:02:20;;;;;;;13.68;6.70;;;;;;;-144.85;100.00;61331.59;5092064;28;32413;-72
2023/05/28 06:04:47;;;;;;;17.15;7.10;;;;;;;-144.85;100.00;61331.59;5079349;28;31558;-72
2023/05/28 06:07:33;;;;;;;14.38;7.07;;;;;;;-144.85;100.00;61331.59;5069964;28;32289;-73
2023/05/28 06:10:10;;;;;;;16.00;7.45;;;;;;;-144.85;100.00;61331.59;5096008;28;33166;-72
2023/05/28 06:12:38;;;;;;;17.10;7.25;;;;;;;-144.85;100.00;61331.59;5078622;28;33354;-73
2023/05/28 06:15:06;;;;;;;14.68;7.05;;;;;;;-144.85;100.00;61331.59;5078485;28;30899;-73
2023/05/28 06:17:33;;;;;;;13.63;7.53;;;;;;;-144.85;100.00;61331.59;5059358;28;31030;-73
2023/05/28 06:20:04;;;;;;;17.30;6.90;;;;;;;-144.85;100.00;61331.59;5053368;28;30557;-73
2023/05/28 06:22:31;;;;;;;12.40;7.10;;;;;;;-144.85;100.00;61331.59;5087099;28;33074;-73
2023/05/28 06:25:01;;;;;;;15.52;6.90;;;;;;;-144.85;100.00;61331.59;5078816;28;32686;-74
2023/05/28 06:27:28;;;;;;;13.05;6.82;;;;;;;-144.85;100.00;61331.59;5077062;28;31795;-73
2023/05/28 06:29:55;;;;;;;16.58;6.78;;;;;;;-144.85;100.00;61331.59;5052550;28;30288;-73
2023/05/28 06:32:22;;;;;;;16.70;7.90;;;;;;;-144.85;100.00;61331.59;5095649;28;33543;-73
2023/05/28 06:34:49;;;;;;;13.65;6.97;;;;;;;-144.85;100.00;61331.59;5082604;28;31155;-73
2023/05/28 06:37:17;;;;;;;16.90;7.40;;;;;;;-144.85;100.00;61331.59;5089236;28;30828;-73
2023/05/28 06:39:44;;;;;;;12.38;6.90;;;;;;;-144.85;100.00;61331.59;5091972;27;31541;-73
2023/05/28 06:42:13;;;;;;;13.57;7.15;;;;;;;-144.85;100.00;61331.59;5059576;28;31307;-73
2023/05/28 06:44:53;;;;;;;14.63;7.18;;;;;;;-144.85;100.00;61331.59;5086592;28;33482;-73
2023/05/28 06:47:21;;;;;;;16.13;7.68;;;;;;;-144.85;100.00;61331.59;5096685;28;32796;-73
2023/05/28 06:49:48;;;;;;;11.60;6.78;;;;;;;-144.85;100.00;61331.59;5096329;28;32619;-74
2023/05/28 06:52:16;;;;;;;17.35;7.70;;;;;;;-144.85;100.00;61331.59;5078092;28;34457;-73
2023/05/28 06:54:43;;;;;;;13.65;6.85;;;;;;;-144.85;100.00;61331.59;5063620;28;31427;-73
2023/05/28 06:57:10;;;;;;;16.00;7.38;;;;;;;-144.85;100.00;61331.59;5069492;28;30836;-73
2023/05/28 06:59:56;;;;;;;15.05;6.95;;;;;;;-144.85;100.00;61331.59;5095645;28;32009;-73
2023/05/28 07:02:58;;;;;;;16.77;7.68;;;;;;;-144.85;100.00;61331.59;5075558;28;33617;-73
2023/05/28 07:05:44;;;;;;;14.77;6.18;;;;;;;-144.85;100.00;61331.59;5053595;28;32524;-73
2023/05/28 07:08:12;;;;;;;15.07;7.28;;;;;;;-144.85;100.00;61331.59;5074277;28;31018;-73
2023/05/28 07:10:39;;;;;;;17.52;7.32;;;;;;;-144.85;100.00;61331.59;5083286;28;30570;-73
2023/05/28 07:13:07;;;;;;;14.00;7.50;;;;;;;-144.85;100.00;61331.59;5109445;27;31785;-73
2023/05/28 07:15:35;;;;;;;16.15;7.30;;;;;;;-144.85;100.00;61331.59;5065903;28;31297;-73
2023/05/28 07:18:06;;;;;;;17.75;7.68;;;;;;;-144.85;100.00;61331.59;5090566;28;31080;-73
2023/05/28 07:20:33;;;;;;;13.45;6.93;;;;;;;-144.85;100.00;61331.59;5089752;28;31675;-73
2023/05/28 07:23:11;;;;;;;12.00;6.70;;;;;;;-144.85;100.00;61331.59;5058226;28;31622;-73
2023/05/28 07:25:42;;;;;;;11.52;6.18;;;;;;;-144.85;100.00;61331.59;5072969;28;31124;-73
2023/05/28 07:28:09;;;;;;;14.63;6.65;;;;;;;-144.85;100.00;61331.59;5078150;28;32837;-73
2023/05/28 07:30:37;;;;;;;15.05;6.78;;;;;;;-144.85;100.00;61331.59;5047820;28;31615;-74
2023/05/28 07:33:06;;;;;;;11.88;5.57;;;;;;;-144.85;100.00;61331.59;5067615;28;31322;-73
2023/05/28 07:35:35;;;;;;;13.18;6.28;;;;;;;-144.85;100.00;61331.59;5058114;28;31023;-73
2023/05/28 07:38:02;;;;;;;12.50;6.82;;;;;;;-144.85;100.00;61331.59;5082462;28;32851;-74
2023/05/28 07:40:30;;;;;;;11.45;4.97;;;;;;;-144.85;100.00;61331.59;5062993;28;31613;-74
2023/05/28 07:43:05;;;;;;;11.05;5.90;;;;;;;-144.85;100.00;61331.59;5065393;28;31338;-75
2023/05/28 07:45:33;;;;;;;12.27;5.72;;;;;;;-144.85;100.00;61331.59;5074044;28;31577;-75
2023/05/28 07:48:00;;;;;;;12.63;5.95;;;;;;;-144.85;100.00;61331.59;5076520;28;32137;-75
2023/05/28 07:50:44;;;;;;;12.93;5.70;;;;;;;-144.85;100.00;61331.59;5068192;28;31632;-75
2023/05/28 07:53:29;;;;;;;10.43;5.60;;;;;;;-144.85;100.00;61331.59;5089257;28;31585;-75
2023/05/28 07:55:56;;;;;;;11.70;5.72;;;;;;;-144.85;100.00;61331.59;5057312;28;31392;-75
2023/05/28 07:58:24;;;;;;;10.43;5.60;;;;;;;-144.85;100.00;61331.59;5080175;28;30900;-75
2023/05/28 08:00:51;;;;;;;14.57;5.50;;;;;;;-144.85;100.00;61331.59;5092141;28;30557;-76
2023/05/28 08:03:19;;;;;;;10.70;5.22;;;;;;;-144.85;100.00;61331.59;5085004;28;32301;-75
2023/05/28 08:05:48;;;;;;;10.70;5.45;;;;;;;-144.85;100.00;61331.59;5086744;28;31413;-74
2023/05/28 08:08:16;;;;;;;11.20;5.07;;;;;;;-144.85;100.00;61331.59;5060177;28;31229;-75
2023/05/28 08:10:43;;;;;;;12.13;5.82;;;;;;;-144.85;100.00;61331.59;5075091;28;31807;-75
2023/05/28 08:13:13;;;;;;;13.35;5.68;;;;;;;-144.85;100.00;61331.59;5079805;28;32319;-75
2023/05/28 08:15:41;;;;;;;9.73;5.30;;;;;;;-144.85;100.00;61331.59;5061597;28;31276;-76
2023/05/28 08:18:10;;;;;;;12.07;6.47;;;;;;;-144.85;100.00;61331.59;5079466;28;30377;-75
2023/05/28 08:20:38;;;;;;;14.68;6.05;;;;;;;-144.85;100.00;61331.59;5078124;28;31589;-75
2023/05/28 08:23:34;;;;;;;12.13;5.90;;;;;;;-144.85;100.00;61331.59;5087649;28;32373;-73
2023/05/28 08:26:04;;;;;;;13.35;5.47;;;;;;;-144.85;100.00;61331.59;5064203;28;30965;-73
2023/05/28 08:28:33;;;;;;;12.75;6.22;;;;;;;-144.85;100.00;61331.59;5057256;28;31922;-73
2023/05/28 08:31:03;;;;;;;13.57;6.10;;;;;;;-144.85;100.00;61331.59;5080173;28;31076;-73
2023/05/28 08:33:43;;;;;;;12.40;6.03;;;;;;;-144.85;100.00;61331.59;5077129;28;32870;-73
2023/05/28 08:36:11;;;;;;;15.23;5.95;;;;;;;-144.85;100.00;61331.59;5089519;28;31351;-73
2023/05/28 08:38:38;;;;;;;11.45;6.28;;;;;;;-144.85;100.00;61331.59;5064388;28;31124;-73
2023/05/28 08:41:05;;;;;;;14.50;6.15;;;;;;;-144.85;100.00;61331.59;5065575;28;30687;-74
2023/05/28 08:43:33;;;;;;;12.32;5.80;;;;;;;-144.85;100.00;61331.59;5099026;28;32072;-73
2023/05/28 08:46:00;;;;;;;13.07;5.28;;;;;;;-144.85;100.00;61331.59;5084307;28;31108;-73
2023/05/28 08:48:38;;;;;;;8.48;4.88;;;;;;;-144.85;100.00;61331.59;5084956;28;30775;-74
2023/05/28 08:51:06;;;;;;;11.40;4.90;;;;;;;-144.85;100.00;61331.59;5084704;28;30590;-74
2023/05/28 08:53:40;;;;;;;14.35;5.65;;;;;;;-144.85;100.00;61331.59;5067933;28;32832;-73
2023/05/28 08:56:09;;;;;;;10.48;4.80;;;;;;;-144.85;100.00;61331.59;5082276;28;31082;-73
2023/05/28 08:58:39;;;;;;;10.02;5.15;;;;;;;-144.85;100.00;61331.59;5067604;28;30824;-73
2023/05/28 09:01:10;;;;;;;11.75;5.22;;;;;;;-144.85;100.00;61331.59;5055393;28;32000;-73
2023/05/28 09:03:46;;;;;;;11.02;4.72;;;;;;;-144.85;100.00;61331.59;5073156;28;31534;-74
2023/05/28 09:06:25;;;;;;;11.10;4.95;;;;;;;-144.85;100.00;61331.59;5083832;28;31552;-73
2023/05/28 09:08:54;;;;;;;10.05;4.50;;;;;;;-144.85;100.00;61331.59;5080536;28;31857;-73
2023/05/28 09:11:36;;;;;;;10.77;4.60;;;;;;;-144.85;100.00;61331.59;5079954;28;30700;-75
2023/05/28 09:14:12;;;;;;;9.38;4.15;;;;;;;-144.85;100.00;61331.59;5077593;28;32309;-73
2023/05/28 09:16:41;;;;;;;9.50;4.18;;;;;;;-144.85;100.00;61331.59;5076932;28;32016;-73
2023/05/28 09:19:15;;;;;;;8.13;3.70;;;;;;;-144.85;100.00;61331.59;5079484;28;32105;-74
2023/05/28 09:21:55;;;;;;;7.70;3.83;;;;;;;-144.85;100.00;61331.59;5068624;28;30689;-73
2023/05/28 09:24:28;;;;;;;13.13;4.32;;;;;;;-144.85;100.00;61331.59;5043954;28;32616;-73
2023/05/28 09:27:17;;;;;;;10.65;4.28;;;;;;;-144.85;100.00;61331.59;5095295;28;32730;-73
2023/05/28 09:29:44;;;;;;;12.43;4.10;;;;;;;-144.85;100.00;61331.59;5080099;28;32097;-73
2023/05/28 09:32:19;;;;;;;10.82;4.00;;;;;;;-144.85;100.00;61331.59;5098184;28;32024;-73
2023/05/28 09:34:48;;;;;;;;;;;;;;;-144.85;100.00;61331.59;5080126;28;32542;-73
2023/05/28 09:37:17;;;;;;;9.13;4.18;;;;;;;-144.85;100.00;61331.59;5099913;28;32629;-73
2023/05/28 09:39:44;;;;;;;10.75;4.15;;;;;;;-144.85;100.00;61331.59;5062715;28;30874;-73
2023/05/28 09:42:13;;;;;;;7.97;4.20;;;;;;;-144.85;100.00;61331.59;5098009;28;31510;-73
2023/05/28 09:44:42;;;;;;;9.20;4.30;;;;;;;-144.85;100.00;61331.59;5079012;28;31661;-74
2023/05/28 09:47:18;;;;;;;8.68;3.75;;;;;;;-144.85;100.00;61331.59;5096559;28;33673;-73
2023/05/28 09:49:47;;;;;;;11.60;4.57;;;;;;;-144.85;100.00;61331.59;5094753;28;31940;-74
2023/05/28 09:52:20;;;;;;;10.73;4.60;;;;;;;-144.85;100.00;61331.59;5070348;28;32008;-73
2023/05/28 09:54:53;;;;;;;10.98;4.32;;;;;;;-144.85;100.00;61331.59;5060908;28;31435;-74
2023/05/28 09:57:25;;;;;;;8.40;3.80;;;;;;;-144.85;100.00;61331.59;5097336;28;32134;-74
2023/05/28 09:59:55;;;;;;;10.95;4.60;;;;;;;-144.85;100.00;61331.59;5076265;28;33246;-73
2023/05/28 10:02:32;;;;;;;9.07;3.78;;;;;;;-144.85;100.00;61331.59;5079655;28;32476;-74
2023/05/28 10:05:02;;;;;;;8.25;3.97;;;;;;;-144.85;100.00;61331.59;5094323;28;32793;-74
2023/05/28 10:07:30;;;;;;;8.32;3.72;;;;;;;-144.85;100.00;61331.59;5095947;28;31998;-73
2023/05/28 10:10:00;;;;;;;6.13;3.38;;;;;;;-144.85;100.00;61331.59;5079067;28;33320;-74
2023/05/28 10:12:30;;;;;;;8.10;3.53;;;;;;;-144.85;100.00;61331.59;5050361;28;32305;-74
2023/05/28 10:14:59;;;;;;;9.65;3.70;;;;;;;-144.85;100.00;61331.59;5097014;28;32219;-73
2023/05/28 10:17:27;;;;;;;11.70;3.88;;;;;;;-144.85;100.00;61331.59;5096934;28;32300;-73
2023/05/28 10:19:54;;;;;;;9.57;4.35;;;;;;;-144.85;100.00;61331.59;5096955;28;31689;-75
2023/05/28 10:22:22;;;;;;;9.48;3.88;;;;;;;-144.85;100.00;61331.59;5079319;28;32301;-73
2023/05/28 10:24:50;;;;;;;9.75;4.10;;;;;;;-144.85;100.00;61331.59;5096133;28;32306;-76
2023/05/28 10:27:18;;;;;;;9.73;4.65;;;;;;;-144.85;100.00;61331.59;5096584;28;31867;-76
2023/05/28 10:29:47;;;;;;;10.25;3.83;;;;;;;-144.85;100.00;61331.59;5097382;28;31833;-76
2023/05/28 10:32:15;;;;;;;11.32;4.38;;;;;;;-144.85;100.00;61331.59;5060306;28;32014;-74
2023/05/28 10:34:43;;;;;;;8.60;3.80;;;;;;;-144.85;100.00;61331.59;5078655;28;31996;-73
2023/05/28 10:37:11;;;;;;;9.02;4.00;;;;;;;-144.85;100.00;61331.59;5086721;28;30920;-73
2023/05/28 10:39:39;;;;;;;8.15;3.72;;;;;;;-144.85;100.00;61331.59;5105601;28;31860;-74
2023/05/28 10:42:07;;;;;;;8.93;4.32;;;;;;;-144.85;100.00;61331.59;5097063;28;31508;-73
2023/05/28 10:45:05;;;;;;;11.73;4.30;;;;;;;-144.85;100.00;61331.59;5097135;28;33115;-74
2023/05/28 10:47:37;;;;;;;7.45;3.70;;;;;;;-144.85;100.00;61331.59;5095892;28;32005;-74
2023/05/28 10:50:07;;;;;;;8.30;3.53;;;;;;;-144.85;100.00;61331.59;5097363;28;31616;-74
2023/05/28 10:53:02;;;;;;;12.65;4.38;;;;;;;-144.85;100.00;61331.59;5098260;28;31600;-74
2023/05/28 10:55:46;;;;;;;10.48;3.75;;;;;;;-144.85;100.00;61331.59;5084038;28;33140;-75
2023/05/28 10:58:25;;;;;;;11.05;3.88;;;;;;;-144.85;100.00;61331.59;5109990;28;31960;-74
2023/05/28 11:01:00;;;;;;;9.77;4.05;;;;;;;-144.85;100.00;61331.59;5091859;28;31025;-75
2023/05/28 11:03:50;;;;;;;;;;;;;;;-144.85;100.00;61331.59;5094291;28;30585;-72
2023/05/28 11:06:18;;;;;;;7.65;3.90;;;;;;;-144.85;100.00;61331.59;5093952;28;32996;-73
2023/05/28 11:08:46;;;;;;;9.18;3.88;;;;;;;-144.85;100.00;61331.59;5069822;28;30913;-72
2023/05/28 11:11:16;;;;;;;6.78;3.53;;;;;;;-144.85;100.00;61331.59;5092057;28;32818;-73
2023/05/28 11:13:45;;;;;;;9.77;3.40;;;;;;;-144.85;100.00;61331.59;5069274;28;31010;-74